createdAt,value
2018-03-02T00:00:43.750Z,87.23
2018-03-02T00:03:09.567Z,78.11
2018-03-02T00:05:35.377Z,76.59
2018-03-02T00:08:01.235Z,77.66
2018-03-02T00:10:27.052Z,78.17
2018-03-02T00:12:52.934Z,78.13
2018-03-02T00:15:18.696Z,78.30
2018-03-02T00:17:44.606Z,78.25
2018-03-02T00:20:10.432Z,78.22
2018-03-02T00:22:36.230Z,78.33
2018-03-02T00:25:02.068Z,78.60
2018-03-02T00:27:27.866Z,78.69
2018-03-02T00:29:53.663Z,79.34
2018-03-02T00:32:19.460Z,79.30
2018-03-02T00:34:45.276Z,78.99
2018-03-02T00:37:11.056Z,79.14
2018-03-02T00:39:36.862Z,79.77
2018-03-02T00:42:02.660Z,79.62
2018-03-02T00:44:28.467Z,79.50
2018-03-02T00:46:54.247Z,79.60
2018-03-02T00:49:20.039Z,79.40
2018-03-02T00:51:45.868Z,79.30
2018-03-02T00:54:11.660Z,79.46
2018-03-02T00:56:37.454Z,79.58
2018-03-02T00:59:03.247Z,79.64
2018-03-02T01:01:29.057Z,79.98
2018-03-02T01:03:54.867Z,79.75
2018-03-02T01:06:20.779Z,79.89
2018-03-02T01:08:46.576Z,80.12
2018-03-02T01:11:12.362Z,79.99
2018-03-02T01:13:38.191Z,80.41
2018-03-02T01:16:03.988Z,80.04
2018-03-02T01:18:29.775Z,79.63
2018-03-02T01:20:55.554Z,79.11
2018-03-02T01:23:21.339Z,79.52
2018-03-02T01:25:47.200Z,79.27
2018-03-02T01:28:13.015Z,79.22
2018-03-02T01:30:38.807Z,78.70
2018-03-02T01:33:04.622Z,79.14
2018-03-02T01:35:30.418Z,79.39
2018-03-02T01:37:56.203Z,79.45
2018-03-02T01:40:22.030Z,79.46
2018-03-02T01:42:47.873Z,79.10
2018-03-02T01:45:13.672Z,79.08
2018-03-02T01:47:39.468Z,79.34
2018-03-02T01:50:05.291Z,79.12
2018-03-02T01:52:31.103Z,78.83
2018-03-02T01:54:56.901Z,78.80
2018-03-02T01:57:22.688Z,78.75
2018-03-02T01:59:48.675Z,78.75
2018-03-02T02:02:14.464Z,78.68
2018-03-02T02:04:40.248Z,79.10
2018-03-02T02:07:06.064Z,78.59
2018-03-02T02:09:31.855Z,78.54
2018-03-02T02:11:57.650Z,78.46
2018-03-02T02:14:23.509Z,78.93
2018-03-02T02:16:49.310Z,78.78
2018-03-02T02:19:15.145Z,78.49
2018-03-02T02:21:41.048Z,78.31
2018-03-02T02:24:06.843Z,78.63
2018-03-02T02:26:32.648Z,78.72
2018-03-02T02:28:58.471Z,79.10
2018-03-02T02:31:25.268Z,79.35
2018-03-02T02:33:51.107Z,78.80
2018-03-02T02:36:17.803Z,78.79
2018-03-02T02:38:43.575Z,78.62
2018-03-02T02:41:09.372Z,78.34
2018-03-02T02:43:35.152Z,78.22
2018-03-02T02:46:00.968Z,78.25
2018-03-02T02:48:26.780Z,78.29
2018-03-02T02:50:52.576Z,78.28
2018-03-02T02:53:18.355Z,78.48
2018-03-02T02:55:44.169Z,78.28
2018-03-02T02:58:09.959Z,77.89
2018-03-02T03:00:35.773Z,78.20
2018-03-02T03:03:01.579Z,78.45
2018-03-02T03:05:27.367Z,78.18
2018-03-02T03:07:53.326Z,77.66
2018-03-02T03:10:19.099Z,77.64
2018-03-02T03:12:44.867Z,77.27
2018-03-02T03:15:10.670Z,77.43
2018-03-02T03:17:36.611Z,77.53
2018-03-02T03:20:02.427Z,77.33
2018-03-02T03:22:28.664Z,77.23
2018-03-02T03:24:54.457Z,77.34
2018-03-02T03:27:20.243Z,77.14
2018-03-02T03:29:46.062Z,76.82
2018-03-02T03:32:11.855Z,76.57
2018-03-02T03:34:37.650Z,76.38
2018-03-02T03:37:03.476Z,76.48
2018-03-02T03:39:29.264Z,76.66
2018-03-02T03:41:55.058Z,76.21
2018-03-02T03:44:20.871Z,76.29
2018-03-02T03:46:46.655Z,76.39
2018-03-02T03:49:12.443Z,76.20
2018-03-02T03:51:38.500Z,76.54
2018-03-02T03:54:04.296Z,76.33
2018-03-02T03:56:30.102Z,76.30
2018-03-02T03:58:55.907Z,76.38
2018-03-02T04:01:21.694Z,76.49
2018-03-02T04:03:47.530Z,76.54
2018-03-02T04:06:13.334Z,76.66
2018-03-02T04:08:39.108Z,76.50
2018-03-02T04:11:04.899Z,76.49
2018-03-02T04:13:30.707Z,76.44
2018-03-02T04:15:56.499Z,76.53
2018-03-02T04:18:22.296Z,75.85
2018-03-02T04:20:48.100Z,75.24
2018-03-02T04:23:13.902Z,75.13
2018-03-02T04:25:39.693Z,75.29
2018-03-02T04:28:05.518Z,75.71
2018-03-02T04:30:31.305Z,75.39
2018-03-02T04:32:57.196Z,75.23
2018-03-02T04:35:22.976Z,75.11
2018-03-02T04:37:48.772Z,75.13
2018-03-02T04:40:14.675Z,74.99
2018-03-02T04:42:40.455Z,74.79
2018-03-02T04:45:06.230Z,74.79
2018-03-02T04:47:32.023Z,75.40
2018-03-02T04:49:57.831Z,74.90
2018-03-02T04:52:23.607Z,74.84
2018-03-02T04:54:49.407Z,74.94
2018-03-02T04:57:15.228Z,75.02
2018-03-02T04:59:41.009Z,74.84
2018-03-02T05:02:06.836Z,75.40
2018-03-02T05:04:32.629Z,75.51
2018-03-02T05:06:58.447Z,75.13
2018-03-02T05:09:24.249Z,75.62
2018-03-02T05:11:50.020Z,74.98
2018-03-02T05:14:15.820Z,75.28
2018-03-02T05:16:41.627Z,75.20
2018-03-02T05:19:07.472Z,74.96
2018-03-02T05:21:33.325Z,74.90
2018-03-02T05:23:59.074Z,75.03
2018-03-02T05:26:24.855Z,74.97
2018-03-02T05:28:50.666Z,74.63
2018-03-02T05:31:16.449Z,74.65
2018-03-02T05:33:42.244Z,75.12
2018-03-02T05:36:08.308Z,74.71
2018-03-02T05:38:34.092Z,74.66
2018-03-02T05:40:59.887Z,74.71
2018-03-02T05:43:25.684Z,74.75
2018-03-02T05:45:51.508Z,74.67
2018-03-02T05:50:42.990Z,75.04
2018-03-02T05:53:08.798Z,86.74
2018-03-02T05:55:34.590Z,80.33
2018-03-02T05:58:00.391Z,79.00
2018-03-02T06:00:26.385Z,81.91
2018-03-02T06:02:52.170Z,79.05
2018-03-02T06:05:17.959Z,80.15
2018-03-02T06:07:44.019Z,74.24
2018-03-02T06:10:09.790Z,75.00
2018-03-02T06:12:35.575Z,74.33
2018-03-02T06:15:01.401Z,73.91
2018-03-02T06:17:27.219Z,73.82
2018-03-02T06:19:53.052Z,73.55
2018-03-02T06:22:18.900Z,73.70
2018-03-02T06:24:44.682Z,73.75
2018-03-02T06:27:10.519Z,73.67
2018-03-02T06:29:36.331Z,73.77
2018-03-02T06:32:02.142Z,73.32
2018-03-02T06:34:27.934Z,72.70
2018-03-02T06:36:53.735Z,73.95
2018-03-02T06:39:19.665Z,73.62
2018-03-02T06:41:45.462Z,72.84
2018-03-02T06:44:11.244Z,72.88
2018-03-02T06:46:37.224Z,72.83
2018-03-02T06:49:03.026Z,72.07
2018-03-02T06:51:28.815Z,72.25
2018-03-02T06:53:54.859Z,72.36
2018-03-02T06:56:20.639Z,78.20
2018-03-02T06:58:46.430Z,77.82
2018-03-02T07:01:12.231Z,77.03
2018-03-02T07:03:38.014Z,76.37
2018-03-02T07:06:03.806Z,71.42
2018-03-02T07:08:29.699Z,71.79
2018-03-02T07:10:55.477Z,68.94
2018-03-02T07:13:21.266Z,69.98
2018-03-02T07:15:47.050Z,70.75
2018-03-02T07:18:12.846Z,70.46
2018-03-02T07:20:38.706Z,70.58
2018-03-02T07:23:04.498Z,70.81
2018-03-02T07:25:30.285Z,70.87
2018-03-02T07:27:56.129Z,70.08
2018-03-02T07:30:21.927Z,70.15
2018-03-02T07:32:47.718Z,72.14
2018-03-02T07:35:13.766Z,88.72
2018-03-02T07:37:39.548Z,81.75
2018-03-02T07:40:05.330Z,68.94
2018-03-02T07:42:31.138Z,70.73
2018-03-02T07:44:56.998Z,64.44
2018-03-02T07:47:22.775Z,61.03
2018-03-02T07:49:48.755Z,52.07
2018-03-02T07:52:14.548Z,57.22
2018-03-02T07:54:40.342Z,55.78
2018-03-02T07:57:06.259Z,52.17
2018-03-02T07:59:32.140Z,57.32
2018-03-02T08:01:57.938Z,60.09
2018-03-02T08:04:23.797Z,61.09
2018-03-02T08:06:49.527Z,60.29
2018-03-02T08:09:15.318Z,61.20
2018-03-02T08:11:41.127Z,61.52
2018-03-02T08:14:06.903Z,62.05
2018-03-02T08:16:32.794Z,61.97
2018-03-02T08:18:58.598Z,61.50
2018-03-02T08:21:24.381Z,61.13
2018-03-02T08:23:50.190Z,60.96
2018-03-02T08:26:15.988Z,61.56
2018-03-02T08:28:41.834Z,61.07
2018-03-02T08:31:07.652Z,60.49
2018-03-02T08:33:33.491Z,60.40
2018-03-02T08:35:59.266Z,60.20
2018-03-02T08:38:25.219Z,60.82
2018-03-02T08:40:51.002Z,60.52
2018-03-02T08:43:16.882Z,60.05
2018-03-02T08:45:42.775Z,59.36
2018-03-02T08:48:08.598Z,60.33
2018-03-02T08:50:34.406Z,60.17
2018-03-02T08:53:00.202Z,60.09
2018-03-02T08:55:25.995Z,60.31
2018-03-02T08:57:51.854Z,60.09
2018-03-02T09:00:17.610Z,60.12
2018-03-02T09:02:43.398Z,61.23
2018-03-02T09:05:09.231Z,65.50
2018-03-02T09:07:35.042Z,53.87
2018-03-02T09:10:00.826Z,50.63
2018-03-02T09:12:26.687Z,47.74
2018-03-02T09:14:52.490Z,48.13
2018-03-02T09:17:18.323Z,48.68
2018-03-02T09:19:44.152Z,53.12
2018-03-02T09:22:09.956Z,55.99
2018-03-02T09:24:35.794Z,56.28
2018-03-02T09:27:01.615Z,56.32
2018-03-02T09:29:27.403Z,56.52
2018-03-02T09:31:53.477Z,56.87
2018-03-02T09:34:19.295Z,56.62
2018-03-02T09:36:45.194Z,57.35
2018-03-02T09:39:11.548Z,57.21
2018-03-02T09:41:37.347Z,56.28
2018-03-02T09:44:03.253Z,56.59
2018-03-02T09:46:29.068Z,56.58
2018-03-02T09:48:54.867Z,56.61
2018-03-02T09:51:20.693Z,57.15
2018-03-02T09:53:46.504Z,57.34
2018-03-02T09:56:12.420Z,56.62
2018-03-02T09:58:38.231Z,55.84
2018-03-02T10:01:04.104Z,56.02
2018-03-02T10:03:29.904Z,54.84
2018-03-02T10:05:55.692Z,55.71
2018-03-02T10:08:21.515Z,55.94
2018-03-02T10:10:47.335Z,55.35
2018-03-02T10:13:13.130Z,54.93
2018-03-02T10:15:38.956Z,54.64
2018-03-02T10:18:04.776Z,54.70
2018-03-02T10:20:30.580Z,56.08
2018-03-02T10:22:56.506Z,54.97
2018-03-02T10:25:22.513Z,54.05
2018-03-02T10:27:48.364Z,55.58
2018-03-02T10:30:14.201Z,55.00
2018-03-02T10:32:40.002Z,54.64
2018-03-02T10:35:05.801Z,54.75
2018-03-02T10:37:31.583Z,61.61
2018-03-02T10:39:57.396Z,55.57
2018-03-02T10:42:23.191Z,62.50
2018-03-02T10:44:48.982Z,61.64
2018-03-02T10:47:14.766Z,56.21
2018-03-02T10:49:40.864Z,53.49
2018-03-02T10:52:06.668Z,51.63
2018-03-02T10:54:32.463Z,51.78
2018-03-02T10:56:58.273Z,53.62
2018-03-02T10:59:24.146Z,55.03
2018-03-02T11:01:53.944Z,50.81
2018-03-02T11:04:19.726Z,52.84
2018-03-02T11:06:45.556Z,50.32
2018-03-02T11:09:11.340Z,50.80
2018-03-02T11:11:37.130Z,53.19
2018-03-02T11:14:02.964Z,53.42
2018-03-02T11:16:28.782Z,53.34
2018-03-02T11:18:54.576Z,53.17
2018-03-02T11:21:20.372Z,54.79
2018-03-02T11:23:46.211Z,54.24
2018-03-02T11:26:12.011Z,54.97
2018-03-02T11:28:37.872Z,54.39
2018-03-02T11:31:03.678Z,54.35
2018-03-02T11:33:29.552Z,55.25
2018-03-02T11:35:55.361Z,55.27
2018-03-02T11:38:21.135Z,55.59
2018-03-02T11:40:46.918Z,55.60
2018-03-02T11:43:12.741Z,54.74
2018-03-02T11:45:38.532Z,54.04
2018-03-02T11:48:04.350Z,54.91
2018-03-02T11:50:30.146Z,54.81
2018-03-02T11:52:55.939Z,55.75
2018-03-02T11:55:21.729Z,55.82
2018-03-02T11:57:47.534Z,54.98
2018-03-02T12:00:13.343Z,55.36
2018-03-02T12:02:39.132Z,55.21
2018-03-02T12:05:04.926Z,54.42
2018-03-02T12:07:30.748Z,54.52
2018-03-02T12:09:56.560Z,54.65
2018-03-02T12:12:22.408Z,54.23
2018-03-02T12:14:48.488Z,54.45
2018-03-02T12:17:14.283Z,54.44
2018-03-02T12:19:40.067Z,54.17
2018-03-02T12:22:05.863Z,54.05
2018-03-02T12:24:31.661Z,53.95
2018-03-02T12:26:57.450Z,54.43
2018-03-02T12:29:23.491Z,53.94
2018-03-02T12:31:49.283Z,53.36
2018-03-02T12:34:15.085Z,53.56
2018-03-02T12:36:40.895Z,52.56
2018-03-02T12:39:06.672Z,52.01
2018-03-02T12:41:32.467Z,51.21
2018-03-02T12:43:58.274Z,51.68
2018-03-02T12:46:24.051Z,50.77
2018-03-02T12:48:49.891Z,49.24
2018-03-02T12:51:15.680Z,50.14
2018-03-02T12:53:41.470Z,50.37
2018-03-02T12:56:07.590Z,49.48
2018-03-02T12:58:33.381Z,49.92
2018-03-02T13:00:59.184Z,49.96
2018-03-02T13:03:25.077Z,50.49
2018-03-02T13:05:50.892Z,48.75
2018-03-02T13:08:16.664Z,48.64
2018-03-02T13:10:42.487Z,48.40
2018-03-02T13:13:08.279Z,48.94
2018-03-02T13:15:34.077Z,49.38
2018-03-02T13:17:59.883Z,49.47
2018-03-02T13:20:25.742Z,48.55
2018-03-02T13:22:51.519Z,49.05
2018-03-02T13:25:17.336Z,48.36
2018-03-02T13:27:55.859Z,47.97
2018-03-02T13:30:21.686Z,48.82
2018-03-02T13:33:00.025Z,49.30
2018-03-02T13:35:25.829Z,48.92
2018-03-02T13:37:51.615Z,48.14
2018-03-02T13:40:29.843Z,48.05
2018-03-02T13:42:55.636Z,47.22
2018-03-02T13:45:21.410Z,47.32
2018-03-02T13:50:53.974Z,47.17
2018-03-02T13:53:19.787Z,46.79
2018-03-02T13:55:45.567Z,46.29
2018-03-02T13:58:11.347Z,46.76
2018-03-02T14:00:37.425Z,47.74
2018-03-02T14:03:15.548Z,47.17
2018-03-02T14:05:41.345Z,47.02
2018-03-02T14:08:07.130Z,46.02
2018-03-02T14:10:33.019Z,45.37
2018-03-02T14:12:58.811Z,46.02
2018-03-02T14:15:24.662Z,45.85
2018-03-02T14:17:50.450Z,46.32
2018-03-02T14:20:16.284Z,46.76
2018-03-02T14:22:42.070Z,47.83
2018-03-02T14:25:07.892Z,48.03
2018-03-02T14:27:33.718Z,47.98
2018-03-02T14:29:59.523Z,49.80
2018-03-02T14:32:25.357Z,50.22
2018-03-02T14:34:51.200Z,49.51
2018-03-02T14:37:16.988Z,50.67
2018-03-02T14:39:42.781Z,51.47
2018-03-02T14:42:08.591Z,52.00
2018-03-02T14:44:34.389Z,49.80
2018-03-02T14:47:00.171Z,52.98
2018-03-02T14:49:25.990Z,53.78
2018-03-02T14:51:51.781Z,54.55
2018-03-02T14:54:17.598Z,57.66
2018-03-02T14:56:43.459Z,56.33
2018-03-02T14:59:09.230Z,57.16
2018-03-02T15:01:35.018Z,54.05
2018-03-02T15:04:00.796Z,55.75
2018-03-02T15:06:26.596Z,54.88
2018-03-02T15:08:52.410Z,56.13
2018-03-02T15:11:18.222Z,57.15
2018-03-02T15:13:44.018Z,54.86
2018-03-02T15:16:10.090Z,55.42
2018-03-02T15:18:35.880Z,54.62
2018-03-02T15:21:01.647Z,56.53
2018-03-02T15:23:27.625Z,56.66
2018-03-02T15:25:53.420Z,55.79
2018-03-02T15:28:19.219Z,56.01
2018-03-02T15:30:45.019Z,56.85
2018-03-02T15:33:10.806Z,59.11
2018-03-02T15:35:36.598Z,57.08
2018-03-02T15:38:02.405Z,57.99
2018-03-02T15:40:28.202Z,57.95
2018-03-02T15:42:53.990Z,58.84
2018-03-02T15:45:19.809Z,58.85
2018-03-02T15:47:50.295Z,58.56
2018-03-02T15:50:16.092Z,57.88
2018-03-02T15:52:41.891Z,58.52
2018-03-02T15:55:07.695Z,59.25
2018-03-02T15:57:33.476Z,59.31
2018-03-02T15:59:59.327Z,60.02
2018-03-02T16:02:25.130Z,58.73
2018-03-02T16:04:50.915Z,59.39
2018-03-02T16:07:16.789Z,60.02
2018-03-02T16:09:42.580Z,59.94
2018-03-02T16:12:08.703Z,60.07
2018-03-02T16:14:34.495Z,60.74
2018-03-02T16:17:00.276Z,59.90
2018-03-02T16:19:26.060Z,60.92
2018-03-02T16:21:51.839Z,60.73
2018-03-02T16:24:17.622Z,60.48
2018-03-02T16:26:43.414Z,59.89
2018-03-02T16:29:09.218Z,60.38
2018-03-02T16:31:35.023Z,61.17
2018-03-02T16:34:00.808Z,60.24
2018-03-02T16:36:26.603Z,59.44
2018-03-02T16:38:52.418Z,61.14
2018-03-02T16:41:18.199Z,62.35
2018-03-02T16:43:43.999Z,62.85
2018-03-02T16:46:09.814Z,62.86
2018-03-02T16:48:35.614Z,63.35
2018-03-02T16:51:01.402Z,63.29
2018-03-02T16:53:27.261Z,64.00
2018-03-02T16:55:53.047Z,64.21
2018-03-02T16:58:18.846Z,64.35
2018-03-02T17:00:44.670Z,64.45
2018-03-02T17:03:10.488Z,64.81
2018-03-02T17:05:36.407Z,64.86
2018-03-02T17:08:02.228Z,64.91
2018-03-02T17:10:28.005Z,65.39
2018-03-02T17:12:53.803Z,65.85
2018-03-02T17:15:19.611Z,66.10
2018-03-02T17:17:45.402Z,66.29
2018-03-02T17:20:11.219Z,66.10
2018-03-02T17:22:37.023Z,66.17
2018-03-02T17:25:02.811Z,74.11
2018-03-02T17:27:28.598Z,66.06
2018-03-02T17:29:54.408Z,66.39
2018-03-02T17:32:20.221Z,68.29
2018-03-02T17:34:46.428Z,67.13
2018-03-02T17:37:12.236Z,66.85
2018-03-02T17:39:38.028Z,66.81
2018-03-02T17:42:03.842Z,67.57
2018-03-02T17:44:29.635Z,67.59
2018-03-02T17:46:55.483Z,68.18
2018-03-02T17:49:22.674Z,68.55
2018-03-02T17:51:48.464Z,68.45
2018-03-02T17:54:14.292Z,68.75
2018-03-02T17:56:40.552Z,68.77
2018-03-02T17:59:06.341Z,68.79
2018-03-02T18:01:32.135Z,69.06
2018-03-02T18:03:57.948Z,69.02
2018-03-02T18:06:24.347Z,68.80
2018-03-02T18:08:50.239Z,72.29
2018-03-02T18:11:16.058Z,69.23
2018-03-02T18:13:41.846Z,69.00
2018-03-02T18:16:07.707Z,69.86
2018-03-02T18:18:33.552Z,70.10
2018-03-02T18:20:59.343Z,70.21
2018-03-02T18:23:32.095Z,70.49
2018-03-02T18:25:58.885Z,70.03
2018-03-02T18:28:27.166Z,70.08
2018-03-02T18:30:54.585Z,70.72
2018-03-02T18:33:21.637Z,70.98
2018-03-02T18:35:48.987Z,71.55
2018-03-02T18:38:16.259Z,71.04
2018-03-02T18:40:43.596Z,71.37
2018-03-02T18:43:09.427Z,71.42
2018-03-02T18:45:35.868Z,71.38
2018-03-02T18:48:01.993Z,72.13
2018-03-02T18:50:27.877Z,71.72
2018-03-02T18:52:53.675Z,71.76
2018-03-02T18:55:19.498Z,76.67
2018-03-02T18:57:45.363Z,81.10
2018-03-02T19:00:11.166Z,78.20
2018-03-02T19:02:37.007Z,83.41
2018-03-02T19:05:02.832Z,76.67
2018-03-02T19:07:28.652Z,75.78
2018-03-02T19:09:54.464Z,76.47
2018-03-02T19:12:20.287Z,80.39
2018-03-02T19:14:46.629Z,80.89
2018-03-02T19:17:12.462Z,78.67
2018-03-02T19:19:38.938Z,76.53
2018-03-02T19:22:04.763Z,75.69
2018-03-02T19:24:30.779Z,78.05
2018-03-02T19:26:56.648Z,79.17
2018-03-02T19:29:22.726Z,74.89
2018-03-02T19:31:48.641Z,76.30
2018-03-02T19:34:14.576Z,80.44
2018-03-02T19:36:40.937Z,79.82
2018-03-02T19:39:07.120Z,99.65
2018-03-02T19:41:33.228Z,81.62
2018-03-02T19:43:59.155Z,76.40
2018-03-02T19:46:24.976Z,76.05
2018-03-02T19:48:50.885Z,79.52
2018-03-02T19:51:16.696Z,73.39
2018-03-02T19:53:42.508Z,75.48
2018-03-02T19:56:08.397Z,73.69
2018-03-02T19:58:34.794Z,73.22
2018-03-02T20:01:00.667Z,73.50
2018-03-02T20:03:26.815Z,75.98
2018-03-02T20:05:52.604Z,75.89
2018-03-02T20:08:18.680Z,78.03
2018-03-02T20:10:44.531Z,74.33
2018-03-02T20:13:10.333Z,78.42
2018-03-02T20:15:36.239Z,77.54
2018-03-02T20:18:02.128Z,77.39
2018-03-02T20:20:27.953Z,79.30
2018-03-02T20:22:53.799Z,79.76
2018-03-02T20:25:19.630Z,76.55
2018-03-02T20:27:45.443Z,75.89
2018-03-02T20:30:12.181Z,78.19
2018-03-02T20:32:38.079Z,76.41
2018-03-02T20:35:03.876Z,78.11
2018-03-02T20:37:30.036Z,79.69
2018-03-02T20:39:55.861Z,78.70
2018-03-02T20:42:21.695Z,75.06
2018-03-02T20:44:47.510Z,76.72
2018-03-02T20:47:13.307Z,76.72
2018-03-02T20:49:40.292Z,77.73
2018-03-02T20:52:07.277Z,75.52
2018-03-02T20:54:33.296Z,77.40
2018-03-02T20:56:59.388Z,77.09
2018-03-02T20:59:25.214Z,77.81
2018-03-02T21:01:51.368Z,77.20
2018-03-02T21:04:17.165Z,78.08
2018-03-02T21:06:43.526Z,78.32
2018-03-02T21:09:09.323Z,75.79
2018-03-02T21:11:35.135Z,78.98
2018-03-02T21:14:00.984Z,77.66
2018-03-02T21:16:27.072Z,79.67
2018-03-02T21:18:52.861Z,76.81
2018-03-02T21:21:19.067Z,80.48
2018-03-02T21:23:44.861Z,78.79
2018-03-02T21:26:10.677Z,79.14
2018-03-02T21:28:36.501Z,78.50
2018-03-02T21:31:02.670Z,76.83
2018-03-02T21:33:32.450Z,77.44
2018-03-02T21:35:56.494Z,79.41
2018-03-02T21:38:22.300Z,79.21
2018-03-02T21:40:48.894Z,77.88
2018-03-02T21:43:14.817Z,77.18
2018-03-02T21:45:40.933Z,78.85
2018-03-02T21:48:06.860Z,80.56
2018-03-02T21:50:32.675Z,77.27
2018-03-02T21:52:58.616Z,79.05
2018-03-02T21:55:24.415Z,79.85
2018-03-02T21:57:50.217Z,80.31
2018-03-02T22:00:16.083Z,82.90
2018-03-02T22:02:43.048Z,81.01
2018-03-02T22:05:08.851Z,80.74
2018-03-02T22:07:35.667Z,78.94
2018-03-02T22:10:01.482Z,78.95
2018-03-02T22:12:27.405Z,82.29
2018-03-02T22:14:54.041Z,78.15
2018-03-02T22:17:20.496Z,79.89
2018-03-02T22:19:46.409Z,77.58
2018-03-02T22:22:20.109Z,79.75
2018-03-02T22:24:45.902Z,77.06
2018-03-02T22:27:12.240Z,78.46
2018-03-02T22:29:38.114Z,78.37
2018-03-02T22:32:04.584Z,79.24
2018-03-02T22:34:30.610Z,80.93
2018-03-02T22:36:56.680Z,80.40
2018-03-02T22:39:22.506Z,80.73
2018-03-02T22:41:48.327Z,81.89
2018-03-02T22:44:14.326Z,85.29
2018-03-02T22:46:40.135Z,79.62
2018-03-02T22:49:06.904Z,80.96
2018-03-02T22:51:32.689Z,82.13
2018-03-02T22:53:58.663Z,83.58
2018-03-02T22:56:24.442Z,82.62
2018-03-02T22:58:50.244Z,81.18
2018-03-02T23:01:16.067Z,80.49
2018-03-02T23:03:41.843Z,85.02
2018-03-02T23:06:07.639Z,84.39
2018-03-02T23:08:33.455Z,82.54
2018-03-02T23:10:59.242Z,81.77
2018-03-02T23:13:25.467Z,84.27
2018-03-02T23:15:51.266Z,85.12
2018-03-02T23:18:17.756Z,82.68
2018-03-02T23:20:43.597Z,81.20
2018-03-02T23:23:09.416Z,84.40
2018-03-02T23:25:35.247Z,83.43
2018-03-02T23:28:01.086Z,79.56
2018-03-02T23:30:26.891Z,83.40
2018-03-02T23:32:52.695Z,81.27
2018-03-02T23:35:18.512Z,83.16
2018-03-02T23:37:44.428Z,84.23
2018-03-02T23:40:10.570Z,80.11
2018-03-02T23:42:36.385Z,80.68
2018-03-02T23:45:02.207Z,82.10
2018-03-02T23:47:27.988Z,81.23
2018-03-02T23:49:53.796Z,79.98
2018-03-02T23:52:19.605Z,83.17
2018-03-02T23:54:45.404Z,80.43
2018-03-02T23:57:11.183Z,85.34
2018-03-02T23:59:36.974Z,82.30
